Paw Paw, Illinois
Current Conditions -  °F | °C
As of 8:15 AM on Monday 20 Oct 2014 (Local Time) from KRPJ Reporting Station
Clear Clear  
Wind Chill: 42°   Ceiling: Unl
Heat Index: 45°   Visibility: 10mi
Dew Point: 43°   Wind: 6mph
Humidity: 95%   Direction: 290°WNW
Pressure: 29.86"   Gusts: NA
Location:  41.69°N, 88.98°W
Report Text: KRPJ 201315Z AUTO 29005KT 10SM CLR 07/06 A2986 RMK AO2 LTG DSNT E T00710063
Loading
Personal Weather Stations






























Interactive Weather Map
Tropical Storm Tracking
New forecast layout! Learn more

10-Day Weather Forecast

Advertisements
Track Severe Weather on mobile